Time;durP1;ratioP1;P1;durP2;ratioP2;P2;SDS_P1;SDS_P2;PMS_P1;PMS_P2;Temp;Humidity;BMP_temperature;BMP_pressure;BME280_temperature;BME280_humidity;BME280_pressure;Samples;Min_cycle;Max_cycle;Signal;HPM_P1;HPM_P2
2022/03/20 00:01:17;;;;;;;34.60;16.13;;;5.50;91.60;;;;;;5036093;28;20184;-80
2022/03/20 00:03:42;;;;;;;37.73;16.27;;;5.40;91.70;;;;;;5039457;28;20178;-79
2022/03/20 00:06:08;;;;;;;37.13;15.83;;;5.50;91.30;;;;;;5040274;28;20273;-80
2022/03/20 00:08:34;;;;;;;37.93;15.97;;;5.60;91.10;;;;;;5039179;28;20199;-80
2022/03/20 00:11:01;;;;;;;38.90;17.13;;;5.50;91.20;;;;;;5039696;28;20270;-80
2022/03/20 00:13:28;;;;;;;42.43;17.43;;;5.50;91.60;;;;;;5040550;28;20175;-80
2022/03/20 00:15:55;;;;;;;37.33;17.30;;;5.40;92.00;;;;;;5040917;28;20180;-80
2022/03/20 00:18:23;;;;;;;39.03;17.37;;;5.40;91.90;;;;;;5039252;28;20194;-80
2022/03/20 00:21:00;;;;;;;40.20;16.60;;;5.30;91.90;;;;;;5040069;28;20196;-80
2022/03/20 00:23:26;;;;;;;38.87;16.83;;;5.40;91.90;;;;;;5040145;28;20173;-80
2022/03/20 00:25:54;;;;;;;35.93;17.77;;;5.30;91.90;;;;;;5039894;28;20184;-80
2022/03/20 00:28:25;;;;;;;40.30;17.20;;;5.20;92.30;;;;;;5039351;28;20222;-80
2022/03/20 00:30:52;;;;;;;42.30;17.60;;;5.20;92.40;;;;;;5040231;28;20231;-80
2022/03/20 00:33:17;;;;;;;45.23;19.07;;;5.20;92.60;;;;;;5041254;28;20201;-80
2022/03/20 00:35:43;;;;;;;38.13;17.93;;;5.10;93.20;;;;;;5039745;28;20176;-80
2022/03/20 00:38:10;;;;;;;36.90;16.57;;;5.00;93.40;;;;;;5040693;28;20571;-80
2022/03/20 00:40:36;;;;;;;38.10;16.20;;;5.00;93.20;;;;;;5040971;28;20651;-80
2022/03/20 00:43:03;;;;;;;35.50;16.43;;;5.00;93.50;;;;;;5041352;28;20272;-80
2022/03/20 00:45:29;;;;;;;39.00;17.60;;;5.00;93.40;;;;;;5042479;28;20185;-80
2022/03/20 00:47:55;;;;;;;36.40;16.97;;;5.00;93.40;;;;;;5042688;28;20178;-80
2022/03/20 00:50:22;;;;;;;41.93;17.87;;;5.00;93.30;;;;;;5040776;28;20186;-80
2022/03/20 00:52:48;;;;;;;36.13;17.37;;;4.90;94.10;;;;;;5043407;28;20229;-80
2022/03/20 00:55:13;;;;;;;37.80;17.23;;;5.00;93.40;;;;;;5043449;28;20208;-80
2022/03/20 00:57:39;;;;;;;42.13;16.43;;;4.90;93.80;;;;;;5050596;28;20691;-80
2022/03/20 01:00:06;;;;;;;39.40;18.27;;;5.00;93.40;;;;;;5047017;28;20194;-79
2022/03/20 01:02:43;;;;;;;38.27;17.17;;;4.90;93.90;;;;;;5040180;28;20178;-79
2022/03/20 01:05:09;;;;;;;36.10;15.80;;;4.90;94.10;;;;;;5039995;28;20238;-79
2022/03/20 01:07:36;;;;;;;40.17;17.20;;;4.80;93.60;;;;;;5039992;28;20174;-78
2022/03/20 01:10:04;;;;;;;38.40;16.03;;;4.80;93.90;;;;;;5041420;28;20197;-79
2022/03/20 01:12:30;;;;;;;41.53;16.03;;;4.90;93.40;;;;;;5038953;28;20216;-79
2022/03/20 01:14:56;;;;;;;38.67;15.93;;;4.80;93.70;;;;;;5039959;28;20256;-78
2022/03/20 01:17:23;;;;;;;35.40;15.13;;;4.80;93.80;;;;;;5041196;28;20171;-79
2022/03/20 01:19:49;;;;;;;34.53;14.43;;;4.80;93.70;;;;;;5038349;28;20197;-78
2022/03/20 01:22:16;;;;;;;34.37;15.60;;;4.90;93.00;;;;;;5037630;28;20576;-79
2022/03/20 01:24:42;;;;;;;34.13;15.37;;;4.80;93.20;;;;;;5037488;28;20188;-79
2022/03/20 01:27:09;;;;;;;32.23;14.87;;;4.80;93.20;;;;;;5039546;28;20247;-79
2022/03/20 01:29:35;;;;;;;31.97;14.77;;;4.70;93.50;;;;;;5039637;28;20194;-79
2022/03/20 01:32:01;;;;;;;30.50;13.67;;;4.70;93.40;;;;;;5039858;28;20216;-79
2022/03/20 01:34:27;;;;;;;38.37;15.30;;;4.80;93.20;;;;;;5040654;28;20243;-79
2022/03/20 01:36:53;;;;;;;28.67;13.63;;;4.80;93.00;;;;;;5038365;28;20238;-79
2022/03/20 01:39:19;;;;;;;36.20;15.30;;;4.70;92.70;;;;;;5039640;28;20190;-79
2022/03/20 01:41:47;;;;;;;33.07;14.57;;;4.70;93.10;;;;;;5034777;28;20174;-79
2022/03/20 01:44:13;;;;;;;30.17;13.80;;;4.70;92.70;;;;;;5033778;28;20177;-78
2022/03/20 01:46:39;;;;;;;30.47;13.67;;;4.70;92.40;;;;;;5033634;28;20171;-79
2022/03/20 01:49:05;;;;;;;28.43;12.50;;;4.60;92.50;;;;;;5034148;28;20225;-78
2022/03/20 01:54:15;;;;;;;31.37;14.83;;;4.60;92.20;;;;;;5035174;28;20641;-78
2022/03/20 01:56:46;;;;;;;29.40;13.23;;;4.60;92.40;;;;;;5033777;28;20205;-80
2022/03/20 01:59:14;;;;;;;29.20;13.33;;;4.50;92.40;;;;;;5034756;28;20185;-80
2022/03/20 02:01:40;;;;;;;31.60;14.40;;;4.50;92.40;;;;;;5034821;28;20185;-77
2022/03/20 02:04:06;;;;;;;32.27;13.87;;;4.50;92.10;;;;;;5033779;28;20179;-78
2022/03/20 02:06:32;;;;;;;32.50;13.30;;;4.50;92.20;;;;;;5033611;28;20252;-78
2022/03/20 02:08:57;;;;;;;31.53;12.67;;;4.40;92.70;;;;;;5033569;28;20263;-77
2022/03/20 02:11:27;;;;;;;28.67;12.87;;;4.40;92.10;;;;;;5032999;28;20670;-78
2022/03/20 02:13:53;;;;;;;32.43;13.70;;;4.50;92.40;;;;;;5033342;28;20184;-78
2022/03/20 02:16:19;;;;;;;34.53;13.73;;;4.40;91.60;;;;;;5032988;28;20170;-78
2022/03/20 02:18:46;;;;;;;28.40;13.43;;;4.40;92.10;;;;;;5032701;28;20190;-78
2022/03/20 02:21:12;;;;;;;30.60;12.60;;;4.40;91.80;;;;;;5032523;28;20166;-78
2022/03/20 02:23:38;;;;;;;29.60;12.67;;;4.40;91.70;;;;;;5032286;28;20201;-78
2022/03/20 02:26:04;;;;;;;27.23;12.33;;;4.30;91.80;;;;;;5032858;28;20518;-78
2022/03/20 02:28:30;;;;;;;29.30;13.60;;;4.30;91.80;;;;;;5032831;28;20240;-77
2022/03/20 02:30:56;;;;;;;28.23;13.77;;;4.30;91.70;;;;;;5032546;28;20197;-78
2022/03/20 02:33:24;;;;;;;30.03;14.00;;;4.30;91.70;;;;;;5032380;28;20202;-78
2022/03/20 02:35:51;;;;;;;29.40;13.23;;;4.30;91.70;;;;;;5032427;28;20173;-78
2022/03/20 02:38:18;;;;;;;31.20;12.30;;;4.20;91.80;;;;;;5032314;28;20200;-78
2022/03/20 02:40:45;;;;;;;32.00;12.77;;;4.30;91.00;;;;;;5035182;28;20177;-80
2022/03/20 02:43:11;;;;;;;32.93;12.77;;;4.30;91.20;;;;;;5038591;28;20627;-80
2022/03/20 02:45:38;;;;;;;27.50;11.83;;;4.30;91.30;;;;;;5037172;28;20192;-80
2022/03/20 02:48:04;;;;;;;35.63;13.07;;;4.20;91.20;;;;;;5036881;28;20174;-80
2022/03/20 02:50:40;;;;;;;26.87;11.60;;;4.20;91.20;;;;;;5036997;28;20200;-80
2022/03/20 02:53:11;;;;;;;26.70;11.43;;;4.10;91.30;;;;;;5036930;28;20283;-81
2022/03/20 02:55:38;;;;;;;28.47;12.27;;;4.20;90.80;;;;;;5037239;28;20674;-81
2022/03/20 02:58:06;;;;;;;27.90;12.47;;;4.10;91.20;;;;;;5036287;28;20200;-80
2022/03/20 03:00:34;;;;;;;26.63;12.50;;;4.20;90.80;;;;;;5036580;28;20307;-81
2022/03/20 03:03:01;;;;;;;31.33;13.03;;;4.20;90.70;;;;;;5035831;28;20174;-80
2022/03/20 03:05:29;;;;;;;30.03;12.30;;;4.10;91.20;;;;;;5035415;28;20632;-80
2022/03/20 03:11:01;;;;;;;29.80;12.20;;;4.10;90.70;;;;;;5037983;28;20244;-81
2022/03/20 03:13:40;;;;;;;30.87;12.70;;;4.00;90.40;;;;;;5035534;28;20211;-80
2022/03/20 03:16:10;;;;;;;26.67;11.67;;;4.00;90.70;;;;;;5035634;28;20181;-80
2022/03/20 03:18:37;;;;;;;27.77;12.27;;;4.00;90.70;;;;;;5036645;28;20189;-81
2022/03/20 03:21:03;;;;;;;27.70;12.30;;;4.00;90.10;;;;;;5035032;28;20212;-80
2022/03/20 03:23:29;;;;;;;27.50;11.83;;;4.00;90.00;;;;;;5033688;28;20716;-80
2022/03/20 03:25:56;;;;;;;28.83;12.37;;;4.00;90.30;;;;;;5033387;28;20179;-80
2022/03/20 03:28:28;;;;;;;22.83;10.53;;;4.00;90.30;;;;;;5034896;28;20201;-80
2022/03/20 03:30:54;;;;;;;28.57;12.60;;;4.00;89.90;;;;;;5035359;28;20220;-80
2022/03/20 03:33:21;;;;;;;27.00;11.67;;;4.00;90.30;;;;;;5035853;28;20212;-80
2022/03/20 03:35:53;;;;;;;29.17;12.43;;;3.90;90.40;;;;;;5035680;28;20181;-80
2022/03/20 03:38:27;;;;;;;31.20;12.27;;;3.90;90.80;;;;;;5033835;28;20280;-80
2022/03/20 03:40:55;;;;;;;33.70;12.93;;;3.90;90.70;;;;;;5032639;28;20166;-80
2022/03/20 03:43:20;;;;;;;27.50;12.20;;;3.80;91.10;;;;;;5032669;28;20204;-80
2022/03/20 03:45:47;;;;;;;25.80;12.03;;;3.80;91.40;;;;;;5032945;28;20176;-80
2022/03/20 03:48:13;;;;;;;28.27;12.63;;;3.80;91.00;;;;;;5032713;28;20251;-80
2022/03/20 03:50:42;;;;;;;31.60;12.50;;;3.80;90.40;;;;;;5032714;28;20187;-80
2022/03/20 03:53:11;;;;;;;29.67;12.10;;;3.80;90.40;;;;;;5033191;28;20208;-80
2022/03/20 03:55:38;;;;;;;24.23;11.43;;;3.70;90.70;;;;;;5032951;28;20231;-80
2022/03/20 03:58:04;;;;;;;28.30;12.17;;;3.70;90.50;;;;;;5033101;28;20170;-80
2022/03/20 04:00:32;;;;;;;26.47;12.10;;;3.70;90.50;;;;;;5032793;28;20177;-79
2022/03/20 04:02:59;;;;;;;30.97;12.83;;;3.60;91.40;;;;;;5033033;28;20170;-80
2022/03/20 04:05:25;;;;;;;27.00;12.13;;;3.60;91.00;;;;;;5032706;28;20170;-79
2022/03/20 04:07:51;;;;;;;26.13;12.50;;;3.60;90.80;;;;;;5033083;28;20261;-80
2022/03/20 04:10:17;;;;;;;31.43;13.10;;;3.60;90.50;;;;;;5033598;28;20182;-80
2022/03/20 04:12:43;;;;;;;28.73;12.57;;;3.60;90.60;;;;;;5033262;28;20209;-80
2022/03/20 04:15:10;;;;;;;29.50;12.63;;;3.60;90.10;;;;;;5033816;28;20189;-80
2022/03/20 04:17:37;;;;;;;29.20;12.30;;;3.60;90.10;;;;;;5057874;23;20610;-78
2022/03/20 04:20:04;;;;;;;28.33;12.63;;;3.60;90.30;;;;;;5050712;28;20189;-77
2022/03/20 04:22:30;;;;;;;27.73;11.77;;;3.60;89.90;;;;;;5052021;28;20180;-77
2022/03/20 04:24:56;;;;;;;28.13;11.83;;;3.60;89.50;;;;;;5050773;28;20208;-79
2022/03/20 04:27:22;;;;;;;28.87;12.57;;;3.60;89.10;;;;;;5050742;28;20245;-79
2022/03/20 04:29:48;;;;;;;27.00;12.30;;;3.60;89.60;;;;;;5050797;28;20228;-77
2022/03/20 04:32:15;;;;;;;29.73;13.03;;;3.50;90.30;;;;;;5049973;28;20230;-78
2022/03/20 04:34:41;;;;;;;34.63;13.17;;;3.40;89.60;;;;;;5050444;28;20539;-77
2022/03/20 04:37:09;;;;;;;28.53;12.10;;;3.50;88.70;;;;;;5050783;28;20252;-78
2022/03/20 04:39:36;;;;;;;29.40;12.30;;;3.50;88.60;;;;;;5050646;28;20215;-79
2022/03/20 04:42:03;;;;;;;27.73;12.87;;;3.50;88.90;;;;;;5049764;28;20173;-79
2022/03/20 04:44:29;;;;;;;35.03;13.57;;;3.50;88.80;;;;;;5051320;28;20672;-78
2022/03/20 04:46:55;;;;;;;27.43;11.23;;;3.50;88.50;;;;;;5051471;28;20178;-78
2022/03/20 05:00:20;;;;;;;30.57;12.40;;;3.40;88.70;;;;;;5055591;28;20179;-78
2022/03/20 05:02:47;;;;;;;33.23;12.33;;;3.40;88.70;;;;;;5054053;28;20549;-77
2022/03/20 05:05:17;;;;;;;28.80;12.87;;;3.30;89.70;;;;;;5053313;28;20898;-77
2022/03/20 05:07:43;;;;;;;28.43;11.70;;;3.30;89.40;;;;;;5053622;28;20184;-78
2022/03/20 05:15:39;;;;;;;29.13;12.27;;;3.30;89.00;;;;;;5055227;28;20183;-77
2022/03/20 05:18:06;;;;;;;33.90;12.23;;;3.20;88.20;;;;;;5053595;28;20210;-77
2022/03/20 05:20:32;;;;;;;25.30;12.57;;;3.20;88.00;;;;;;5053575;28;20547;-76
2022/03/20 05:22:59;;;;;;;29.97;12.50;;;3.20;89.80;;;;;;5053403;28;20180;-76
2022/03/20 05:25:28;;;;;;;32.60;13.47;;;3.20;88.80;;;;;;5053033;28;20189;-77
2022/03/20 05:27:54;;;;;;;33.57;13.30;;;3.20;89.70;;;;;;5053139;28;20545;-79
2022/03/20 05:30:21;;;;;;;32.43;13.37;;;3.10;89.70;;;;;;5053150;28;20232;-77
2022/03/20 05:32:50;;;;;;;33.00;12.87;;;3.10;88.90;;;;;;5052628;28;20611;-76
2022/03/20 05:35:16;;;;;;;27.40;13.03;;;3.10;89.10;;;;;;5052841;28;20206;-78
2022/03/20 05:37:45;;;;;;;33.87;12.53;;;3.10;88.40;;;;;;5052884;28;20185;-77
2022/03/20 05:40:13;;;;;;;28.33;12.07;;;3.20;88.10;;;;;;5053110;28;20200;-77
2022/03/20 05:42:38;;;;;;;31.47;13.10;;;3.20;88.20;;;;;;5052501;28;20177;-78
2022/03/20 05:45:05;;;;;;;31.17;12.90;;;3.30;88.10;;;;;;5053003;28;20763;-77
2022/03/20 05:47:32;;;;;;;35.13;13.40;;;3.30;88.80;;;;;;5052878;28;20186;-76
2022/03/20 05:50:00;;;;;;;30.77;13.40;;;3.40;87.40;;;;;;5053006;28;20607;-77
2022/03/20 05:52:30;;;;;;;28.40;12.40;;;3.40;88.90;;;;;;5052440;28;20703;-77
2022/03/20 05:54:57;;;;;;;32.50;14.10;;;3.40;87.70;;;;;;5052769;28;20183;-77
2022/03/20 06:00:16;;;;;;;32.20;13.70;;;3.50;87.10;;;;;;5054198;28;20714;-76
2022/03/20 06:02:43;;;;;;;33.90;13.63;;;3.50;87.10;;;;;;5052287;28;20184;-77
2022/03/20 06:05:09;;;;;;;31.73;13.33;;;3.60;86.30;;;;;;5052368;28;20209;-77
2022/03/20 06:07:46;;;;;;;34.27;13.03;;;3.60;86.60;;;;;;5052668;28;20638;-77
2022/03/20 06:10:22;;;;;;;31.20;13.03;;;3.70;85.80;;;;;;5052811;28;20199;-80
2022/03/20 06:12:47;;;;;;;31.17;13.20;;;3.70;87.30;;;;;;5052294;28;20228;-80
2022/03/20 06:15:14;;;;;;;30.13;13.00;;;3.80;85.10;;;;;;5052653;28;20213;-76
2022/03/20 06:17:47;;;;;;;31.93;13.70;;;3.80;85.40;;;;;;5052659;28;20185;-76
2022/03/20 06:20:15;;;;;;;31.17;13.33;;;3.80;86.80;;;;;;5052314;28;20200;-78
2022/03/20 06:22:42;;;;;;;33.30;13.03;;;3.80;86.50;;;;;;5052218;28;20645;-77
2022/03/20 06:25:11;;;;;;;27.97;14.13;;;3.80;85.50;;;;;;5052323;28;20184;-78
2022/03/20 06:27:48;;;;;;;29.57;12.83;;;3.80;85.40;;;;;;5052292;28;20260;-78
2022/03/20 06:30:15;;;;;;;31.63;13.63;;;3.80;85.80;;;;;;5052399;28;20200;-78
2022/03/20 06:32:41;;;;;;;30.90;13.80;;;3.80;85.50;;;;;;5052242;28;20208;-78
2022/03/20 06:35:08;;;;;;;33.97;13.90;;;3.80;85.80;;;;;;5052030;28;20769;-78
2022/03/20 06:37:36;;;;;;;33.30;14.53;;;3.80;86.10;;;;;;5053021;28;20206;-80
2022/03/20 06:40:02;;;;;;;34.43;14.47;;;3.80;87.10;;;;;;5052941;28;20743;-78
2022/03/20 06:42:28;;;;;;;36.47;13.43;;;3.90;85.70;;;;;;5051536;28;20177;-78
2022/03/20 06:44:55;;;;;;;30.50;13.50;;;4.00;84.80;;;;;;5052193;28;20215;-81
2022/03/20 06:47:23;;;;;;;33.00;14.83;;;4.00;84.40;;;;;;5052056;28;20591;-79
2022/03/20 06:49:49;;;;;;;32.73;13.77;;;4.00;84.20;;;;;;5052482;28;20553;-80
2022/03/20 06:52:15;;;;;;;31.80;13.87;;;4.00;85.30;;;;;;5052384;28;20208;-79
2022/03/20 06:54:40;;;;;;;32.97;13.20;;;4.10;85.00;;;;;;5052169;28;20227;-77
2022/03/20 06:57:06;;;;;;;35.23;14.17;;;4.20;83.30;;;;;;5052168;28;20184;-78
2022/03/20 06:59:31;;;;;;;36.90;14.50;;;4.10;83.40;;;;;;5052527;28;20193;-78
2022/03/20 07:01:58;;;;;;;29.83;13.53;;;4.20;83.40;;;;;;5051757;28;20174;-78
2022/03/20 07:04:23;;;;;;;33.70;14.73;;;4.30;83.00;;;;;;5052388;28;20652;-77
2022/03/20 07:06:49;;;;;;;32.13;13.53;;;4.30;82.80;;;;;;5052075;28;20177;-78
2022/03/20 07:09:15;;;;;;;37.27;14.90;;;4.30;82.60;;;;;;5051763;28;20282;-80
2022/03/20 07:11:40;;;;;;;30.57;13.70;;;4.40;82.90;;;;;;5051288;28;20207;-79
2022/03/20 07:14:06;;;;;;;35.17;14.67;;;4.90;82.10;;;;;;5051918;28;20177;-78
2022/03/20 07:16:33;;;;;;;31.90;13.33;;;5.40;78.90;;;;;;5051868;28;20204;-80
2022/03/20 07:18:59;;;;;;;32.37;13.67;;;5.20;79.00;;;;;;5051791;28;20240;-77
2022/03/20 07:21:25;;;;;;;31.43;13.97;;;5.40;79.60;;;;;;5051472;28;20587;-78
2022/03/20 07:23:52;;;;;;;31.87;15.23;;;6.40;76.40;;;;;;5051341;28;20197;-78
2022/03/20 07:31:46;;;;;;;36.00;14.70;;;5.70;78.90;;;;;;5053096;28;20204;-77
2022/03/20 07:34:12;;;;;;;32.03;15.30;;;5.40;78.50;;;;;;5051002;28;20167;-77
2022/03/20 07:36:37;;;;;;;29.77;14.17;;;5.40;78.80;;;;;;5051068;28;20271;-78
2022/03/20 07:39:04;;;;;;;33.97;14.87;;;5.40;77.30;;;;;;5051288;28;20191;-77
2022/03/20 07:41:30;;;;;;;32.27;13.97;;;6.70;74.60;;;;;;5050771;28;20271;-76
2022/03/20 07:43:57;;;;;;;33.80;15.37;;;7.80;71.30;;;;;;5049962;28;20272;-76
2022/03/20 07:46:23;;;;;;;30.93;14.67;;;8.10;69.60;;;;;;5050534;28;20183;-77
2022/03/20 07:48:50;;;;;;;38.17;15.83;;;8.80;69.90;;;;;;5050476;28;20193;-76
2022/03/20 07:51:17;;;;;;;34.07;14.97;;;8.20;69.90;;;;;;5050450;28;20605;-77
2022/03/20 07:53:43;;;;;;;27.67;14.77;;;8.30;71.70;;;;;;5050361;28;20187;-77
2022/03/20 07:56:09;;;;;;;31.27;15.53;;;9.40;68.30;;;;;;5050474;28;20657;-77
2022/03/20 07:58:35;;;;;;;33.63;15.93;;;8.60;67.70;;;;;;5050418;28;20287;-76
2022/03/20 08:01:00;;;;;;;36.80;15.87;;;9.20;67.40;;;;;;5050374;28;20177;-77
2022/03/20 08:03:26;;;;;;;33.93;16.50;;;9.20;66.40;;;;;;5051761;28;20212;-76
2022/03/20 08:05:52;;;;;;;32.87;14.93;;;9.40;66.90;;;;;;5050319;28;20575;-76
2022/03/20 08:08:17;;;;;;;33.63;15.73;;;9.40;66.20;;;;;;5050295;28;20201;-77
2022/03/20 08:10:43;;;;;;;29.73;15.20;;;9.80;65.30;;;;;;5049793;28;20204;-77
2022/03/20 08:13:11;;;;;;;32.87;15.90;;;9.20;67.80;;;;;;5049707;28;20271;-77
2022/03/20 08:15:38;;;;;;;30.77;16.03;;;9.30;68.40;;;;;;5050247;28;20214;-75
2022/03/20 08:18:06;;;;;;;30.13;16.50;;;10.20;66.60;;;;;;5050020;28;20191;-77
2022/03/20 08:20:31;;;;;;;34.10;16.63;;;10.20;65.80;;;;;;5050277;28;20201;-77
2022/03/20 08:22:57;;;;;;;33.50;16.77;;;10.30;64.50;;;;;;5053517;28;20215;-77
2022/03/20 08:25:23;;;;;;;31.33;15.93;;;9.00;69.30;;;;;;5054053;28;20174;-77
2022/03/20 08:27:49;;;;;;;31.33;16.33;;;8.90;68.70;;;;;;5053908;28;20187;-77
2022/03/20 08:30:17;;;;;;;33.47;15.87;;;9.00;70.10;;;;;;5052756;28;20627;-77
2022/03/20 08:32:46;;;;;;;35.83;16.90;;;8.90;67.90;;;;;;5053262;28;20258;-76
2022/03/20 08:35:14;;;;;;;33.23;16.27;;;9.70;70.10;;;;;;5053701;28;20213;-77
2022/03/20 08:37:43;;;;;;;31.80;16.50;;;9.00;66.50;;;;;;5053757;28;20720;-76
2022/03/20 08:40:15;;;;;;;33.43;16.40;;;9.50;67.30;;;;;;5052257;28;20201;-77
2022/03/20 08:42:44;;;;;;;33.43;15.87;;;11.40;63.80;;;;;;5052166;28;20188;-77
2022/03/20 08:45:11;;;;;;;34.03;17.93;;;11.00;64.40;;;;;;5052736;28;20178;-77
2022/03/20 08:47:38;;;;;;;35.70;15.63;;;11.00;61.90;;;;;;5051021;28;20188;-78
2022/03/20 08:50:04;;;;;;;33.20;16.30;;;11.10;63.20;;;;;;5052429;28;20232;-76
2022/03/20 08:52:30;;;;;;;33.33;16.43;;;10.00;63.70;;;;;;5052785;28;20681;-76
2022/03/20 08:54:57;;;;;;;32.60;16.07;;;10.40;65.20;;;;;;5053401;28;20517;-77
2022/03/20 08:57:28;;;;;;;34.00;15.97;;;9.80;64.30;;;;;;5052939;28;20189;-76
2022/03/20 08:59:56;;;;;;;32.87;16.43;;;10.20;64.80;;;;;;5053055;28;20240;-76
2022/03/20 09:02:22;;;;;;;29.37;15.40;;;10.60;65.30;;;;;;5052613;28;20177;-76
2022/03/20 09:04:48;;;;;;;33.63;16.30;;;11.10;64.90;;;;;;5052881;28;20682;-76
2022/03/20 09:07:13;;;;;;;34.17;16.63;;;10.70;65.20;;;;;;5052149;28;20652;-76
2022/03/20 09:09:39;;;;;;;38.57;16.03;;;10.10;65.40;;;;;;5051440;28;20210;-76
2022/03/20 09:12:05;;;;;;;35.70;17.13;;;10.10;66.40;;;;;;5051652;28;20615;-76
2022/03/20 09:14:31;;;;;;;35.70;17.17;;;10.40;65.70;;;;;;5052161;28;20187;-75
2022/03/20 09:19:41;;;;;;;30.67;16.23;;;10.50;67.60;;;;;;5054325;28;20238;-75
2022/03/20 09:22:07;;;;;;;33.73;17.40;;;10.10;66.40;;;;;;5051986;28;20207;-76
2022/03/20 09:24:33;;;;;;;33.33;16.70;;;10.20;66.20;;;;;;5052260;28;20236;-76
2022/03/20 09:27:00;;;;;;;32.97;16.63;;;10.10;67.00;;;;;;5052188;28;20282;-76
2022/03/20 09:29:26;;;;;;;35.07;16.53;;;10.80;67.90;;;;;;5052660;28;20204;-76
2022/03/20 09:31:52;;;;;;;37.17;18.77;;;10.50;68.20;;;;;;5052156;28;20200;-76
2022/03/20 09:34:18;;;;;;;33.70;17.17;;;10.40;68.40;;;;;;5051121;28;20200;-75
2022/03/20 09:36:44;;;;;;;33.43;17.60;;;10.40;66.40;;;;;;5052138;28;20890;-75
2022/03/20 09:39:10;;;;;;;40.17;17.70;;;10.30;67.50;;;;;;5052076;28;20200;-75
2022/03/20 09:41:41;;;;;;;41.67;17.80;;;10.60;66.50;;;;;;5051646;28;20175;-76
2022/03/20 09:44:07;;;;;;;37.73;18.00;;;10.80;66.90;;;;;;5052296;28;20201;-75
2022/03/20 09:46:33;;;;;;;32.87;17.20;;;10.30;66.60;;;;;;5052266;28;20541;-76
2022/03/20 09:49:01;;;;;;;34.70;17.43;;;10.30;67.10;;;;;;5052044;28;20193;-76
2022/03/20 09:51:27;;;;;;;41.77;17.73;;;10.70;66.90;;;;;;5049762;28;20629;-75
2022/03/20 09:53:52;;;;;;;34.57;17.60;;;10.50;66.60;;;;;;5052166;28;20168;-75
2022/03/20 09:56:18;;;;;;;38.93;17.53;;;10.40;66.60;;;;;;5052043;28;20212;-75
2022/03/20 09:58:44;;;;;;;42.73;17.77;;;10.40;68.00;;;;;;5051333;28;20286;-76
2022/03/20 10:01:09;;;;;;;40.00;18.70;;;10.50;68.80;;;;;;5051865;28;20173;-76
2022/03/20 10:03:35;;;;;;;35.90;17.73;;;10.80;67.10;;;;;;5051946;28;20266;-76
2022/03/20 10:06:16;;;;;;;33.17;15.70;;;10.90;66.10;;;;;;5051956;28;20177;-76
2022/03/20 10:09:00;;;;;;;38.23;18.50;;;10.60;66.70;;;;;;5051764;28;20670;-77
2022/03/20 10:11:26;;;;;;;36.40;17.30;;;10.00;67.20;;;;;;5050856;28;20175;-77
2022/03/20 10:14:34;;;;;;;39.23;17.43;;;10.50;68.60;;;;;;5051668;28;20197;-77
2022/03/20 10:17:16;;;;;;;38.03;17.07;;;10.50;68.60;;;;;;5043076;28;20677;-76
2022/03/20 10:19:42;;;;;;;37.33;17.93;;;10.60;67.40;;;;;;5078121;22;20192;-85
2022/03/20 10:22:12;;;;;;;36.27;17.53;;;10.70;67.60;;;;;;5032201;28;20198;-85
2022/03/20 10:24:39;;;;;;;34.03;16.70;;;11.10;67.40;;;;;;5034992;28;20176;-84
2022/03/20 10:27:05;;;;;;;40.53;18.07;;;10.80;67.90;;;;;;5034294;28;20245;-84
2022/03/20 10:29:32;;;;;;;40.43;18.53;;;11.00;69.10;;;;;;5033510;28;20580;-84
2022/03/20 10:32:07;;;;;;;38.10;18.93;;;11.50;67.90;;;;;;5032096;28;20297;-84
2022/03/20 10:34:49;;;;;;;37.63;18.80;;;11.60;67.10;;;;;;5042313;23;20292;-78
2022/03/20 10:37:16;;;;;;;37.67;19.30;;;11.20;67.40;;;;;;5037101;28;20181;-79
2022/03/20 10:39:42;;;;;;;39.67;19.13;;;10.90;67.90;;;;;;5039099;28;20191;-79
2022/03/20 10:42:13;;;;;;;41.90;18.93;;;11.50;68.40;;;;;;5038658;28;20457;-79
2022/03/20 10:44:39;;;;;;;38.27;19.23;;;11.10;66.90;;;;;;5038332;28;20176;-79
2022/03/20 10:47:16;;;;;;;36.90;18.57;;;11.00;67.80;;;;;;5037872;28;20185;-79
2022/03/20 10:50:00;;;;;;;40.43;19.20;;;11.10;68.20;;;;;;5035779;28;20287;-79
2022/03/20 10:52:26;;;;;;;36.93;18.83;;;11.20;68.20;;;;;;5036531;28;20218;-79
2022/03/20 10:54:53;;;;;;;37.63;18.67;;;11.30;67.50;;;;;;5038273;28;20565;-79
2022/03/20 10:57:20;;;;;;;35.43;18.90;;;11.50;67.40;;;;;;5037127;28;20174;-79
2022/03/20 11:00:18;;;;;;;39.30;18.50;;;11.20;67.50;;;;;;5037861;28;20196;-78
2022/03/20 11:02:44;;;;;;;35.07;17.40;;;11.30;68.50;;;;;;5018401;28;20184;-79
2022/03/20 11:05:10;;;;;;;38.37;18.23;;;11.60;67.10;;;;;;5036728;28;20715;-79
2022/03/20 11:07:37;;;;;;;38.90;19.23;;;11.60;67.90;;;;;;5038650;28;20174;-78
2022/03/20 11:10:06;;;;;;;37.13;18.73;;;11.40;67.60;;;;;;5038748;28;20229;-78
2022/03/20 11:12:35;;;;;;;40.37;18.43;;;11.40;68.10;;;;;;5038096;28;20666;-78
2022/03/20 11:15:04;;;;;;;39.33;18.33;;;11.50;68.60;;;;;;5037437;28;20635;-79
2022/03/20 11:17:48;;;;;;;35.30;17.90;;;11.20;68.50;;;;;;5036581;28;20268;-78
2022/03/20 11:20:15;;;;;;;44.57;19.33;;;10.80;69.30;;;;;;5038276;28;20197;-79
2022/03/20 11:22:51;;;;;;;38.83;18.93;;;11.10;69.70;;;;;;5034431;28;20208;-78
2022/03/20 11:25:21;;;;;;;36.83;17.27;;;11.00;69.40;;;;;;5035109;28;20203;-78
2022/03/20 11:27:53;;;;;;;42.20;19.73;;;11.10;69.30;;;;;;5037123;28;20639;-79
2022/03/20 11:30:22;;;;;;;39.67;18.90;;;11.20;69.00;;;;;;5035453;28;20192;-78
2022/03/20 11:32:48;;;;;;;38.33;18.87;;;11.50;68.60;;;;;;5035827;28;20203;-78
2022/03/20 11:35:15;;;;;;;38.47;18.67;;;11.70;69.00;;;;;;5032393;28;20197;-78
2022/03/20 11:37:50;;;;;;;41.77;19.47;;;11.60;68.40;;;;;;5032012;28;20644;-79
2022/03/20 11:40:20;;;;;;;44.27;19.27;;;11.90;68.90;;;;;;5032286;28;20236;-78
2022/03/20 11:42:48;;;;;;;36.67;17.80;;;11.60;67.80;;;;;;5031840;28;20267;-78
2022/03/20 11:45:17;;;;;;;39.70;19.40;;;11.60;68.90;;;;;;5032405;28;20172;-78
2022/03/20 11:47:45;;;;;;;36.43;18.83;;;11.80;68.50;;;;;;5031984;28;20226;-78
2022/03/20 11:50:13;;;;;;;39.90;18.70;;;12.00;68.50;;;;;;5031460;28;20202;-79
2022/03/20 11:52:44;;;;;;;43.00;19.17;;;12.10;67.80;;;;;;5031559;28;20198;-78
2022/03/20 11:55:32;;;;;;;39.20;19.40;;;12.00;68.90;;;;;;5032528;28;20258;-78
2022/03/20 11:58:00;;;;;;;38.03;18.80;;;12.10;67.50;;;;;;5039416;28;20711;-79
2022/03/20 12:00:33;;;;;;;42.80;20.73;;;12.20;68.10;;;;;;5039235;28;20208;-78
2022/03/20 12:03:20;;;;;;;43.27;18.83;;;12.50;69.70;;;;;;5039843;28;20179;-78
2022/03/20 12:06:08;;;;;;;37.67;19.60;;;12.70;67.50;;;;;;5039932;28;20186;-79
2022/03/20 12:08:58;;;;;;;37.47;19.17;;;13.00;66.30;;;;;;5039852;28;20196;-79
2022/03/20 12:11:59;;;;;;;39.33;18.43;;;12.80;67.00;;;;;;5038778;28;20175;-79
2022/03/20 12:14:37;;;;;;;41.60;19.57;;;13.20;67.50;;;;;;5038660;28;20184;-78
2022/03/20 12:17:03;;;;;;;42.60;19.07;;;12.90;66.60;;;;;;5039001;28;20176;-79
2022/03/20 12:19:41;;;;;;;39.20;20.23;;;13.30;67.20;;;;;;5039138;28;20199;-79
2022/03/20 12:22:15;;;;;;;35.03;18.00;;;13.50;66.10;;;;;;5039401;28;20199;-79
2022/03/20 12:24:45;;;;;;;40.00;20.23;;;13.30;65.90;;;;;;5044198;28;20204;-78
2022/03/20 12:27:20;;;;;;;41.47;18.83;;;13.50;67.30;;;;;;5045355;28;20231;-79
2022/03/20 12:29:49;;;;;;;36.17;19.50;;;13.20;66.30;;;;;;5045497;28;20207;-79
2022/03/20 12:32:16;;;;;;;38.47;19.40;;;13.70;66.90;;;;;;5045806;28;20728;-79
2022/03/20 12:34:43;;;;;;;40.43;19.93;;;13.50;67.70;;;;;;5045520;28;20203;-79
2022/03/20 12:37:28;;;;;;;37.80;18.57;;;13.40;67.10;;;;;;5046434;28;20276;-79
2022/03/20 12:39:55;;;;;;;42.10;20.13;;;13.40;66.30;;;;;;5045256;28;20201;-78
2022/03/20 12:42:22;;;;;;;40.00;19.57;;;13.00;66.90;;;;;;5045056;28;20649;-79
2022/03/20 12:44:50;;;;;;;39.10;20.03;;;12.80;66.60;;;;;;5044456;28;20253;-79
2022/03/20 12:47:25;;;;;;;38.57;19.13;;;13.10;67.30;;;;;;5042529;28;20701;-79
2022/03/20 12:50:06;;;;;;;39.10;18.83;;;13.40;68.10;;;;;;5039862;28;20189;-78
2022/03/20 12:52:33;;;;;;;42.13;20.20;;;13.20;68.00;;;;;;5041801;28;20688;-79
2022/03/20 12:55:01;;;;;;;39.73;19.97;;;13.00;67.40;;;;;;5042204;28;20200;-78
2022/03/20 12:57:42;;;;;;;40.47;20.33;;;13.20;68.80;;;;;;5043837;28;20187;-79
2022/03/20 13:00:14;;;;;;;44.40;20.17;;;13.20;68.10;;;;;;5039744;28;20227;-78
2022/03/20 13:03:00;;;;;;;37.83;20.47;;;13.20;68.00;;;;;;5040696;28;20573;-78
2022/03/20 13:05:28;;;;;;;40.03;19.47;;;13.00;67.40;;;;;;5035368;28;20182;-79
2022/03/20 13:07:55;;;;;;;39.97;19.80;;;13.00;68.50;;;;;;5028033;28;20174;-79
2022/03/20 13:10:22;;;;;;;42.07;19.67;;;12.80;68.30;;;;;;5031489;28;20208;-81
2022/03/20 13:13:01;;;;;;;38.70;19.43;;;13.00;68.80;;;;;;5034165;28;20323;-81